Time;durP1;ratioP1;P1;durP2;ratioP2;P2;SDS_P1;SDS_P2;PMS_P1;PMS_P2;Temp;Humidity;BMP_temperature;BMP_pressure;BME280_temperature;BME280_humidity;BME280_pressure;Samples;Min_cycle;Max_cycle;Signal;HPM_P1;HPM_P2
2021/06/26 00:01:12;;;;;;;13.00;7.75;;;;;;;30.31;62.25;100849.91;5049688;28;70392;-32
2021/06/26 00:03:43;;;;;;;17.45;7.55;;;;;;;30.35;62.55;100859.25;5047516;28;65128;-33
2021/06/26 00:06:14;;;;;;;13.73;7.20;;;;;;;30.32;62.65;100846.16;5051418;28;69710;-33
2021/06/26 00:08:44;;;;;;;28.85;7.97;;;;;;;30.46;62.18;100868.56;5050848;28;66077;-33
2021/06/26 00:11:15;;;;;;;15.90;7.18;;;;;;;30.42;62.97;100853.78;5047405;28;68910;-34
2021/06/26 00:13:46;;;;;;;16.70;7.35;;;;;;;30.50;62.67;100864.38;5051711;28;66145;-34
2021/06/26 00:16:17;;;;;;;8.27;6.57;;;;;;;30.50;62.31;100869.78;5049228;28;69901;-33
2021/06/26 00:18:48;;;;;;;14.23;7.50;;;;;;;30.48;62.72;100866.47;5052026;28;65872;-33
2021/06/26 00:21:19;;;;;;;8.52;6.68;;;;;;;30.43;63.65;100855.47;5051348;27;70797;-34
2021/06/26 00:23:50;;;;;;;16.88;6.55;;;;;;;30.53;64.17;100871.22;5052315;28;65138;-34
2021/06/26 00:26:21;;;;;;;17.90;6.97;;;;;;;30.55;64.82;100872.66;5052004;28;70081;-34
2021/06/26 00:29:00;;;;;;;24.58;7.00;;;;;;;30.54;65.34;100876.44;5050687;28;66090;-35
2021/06/26 00:31:31;;;;;;;18.02;6.75;;;;;;;30.55;64.56;100886.19;5050406;28;70065;-33
2021/06/26 00:34:02;;;;;;;16.20;6.40;;;;;;;30.50;63.92;100881.44;5051020;28;66462;-33
2021/06/26 00:36:33;;;;;;;18.15;6.70;;;;;;;30.58;64.31;100891.19;5050282;28;69094;-34
2021/06/26 00:39:04;;;;;;;27.10;7.00;;;;;;;30.61;63.86;100896.16;5052930;28;66039;-34
2021/06/26 00:41:35;;;;;;;15.18;6.10;;;;;;;30.57;64.56;100900.34;5052706;28;69144;-34
2021/06/26 00:44:10;;;;;;;15.48;6.63;;;;;;;30.62;64.39;100905.94;5051948;28;67034;-33
2021/06/26 00:46:41;;;;;;;13.35;6.78;;;;;;;30.65;64.49;100921.75;5055471;28;70132;-33
2021/06/26 00:49:12;;;;;;;18.95;6.53;;;;;;;30.69;65.34;100922.16;5049560;28;65163;-34
2021/06/26 00:51:42;;;;;;;12.07;5.80;;;;;;;30.68;65.22;100932.16;5051572;28;70645;-33
2021/06/26 00:54:14;;;;;;;21.25;6.18;;;;;;;30.70;64.81;100924.66;5050815;28;66820;-34
2021/06/26 00:56:45;;;;;;;15.10;6.40;;;;;;;30.70;65.11;100915.66;5051914;28;69938;-34
2021/06/26 00:59:16;;;;;;;15.45;6.55;;;;;;;30.73;64.91;100923.38;5050475;28;65890;-32
2021/06/26 01:01:46;;;;;;;7.60;5.75;;;;;;;30.51;65.16;100890.41;5052370;28;68990;-34
2021/06/26 01:04:17;;;;;;;8.85;6.25;;;;;;;30.78;65.14;100930.84;5051659;28;66356;-33
2021/06/26 01:06:48;;;;;;;10.45;5.57;;;;;;;30.56;65.23;100890.56;5052234;28;69541;-33
2021/06/26 01:09:19;;;;;;;11.75;5.68;;;;;;;30.80;65.46;100928.78;5054154;28;66280;-34
2021/06/26 01:11:57;;;;;;;12.20;6.47;;;;;;;30.70;65.26;100921.09;5050633;28;69642;-35
2021/06/26 01:14:30;;;;;;;17.05;6.40;;;;;;;30.89;65.24;100943.69;5053883;28;66448;-35
2021/06/26 01:17:06;;;;;;;13.38;6.00;;;;;;;30.59;65.60;100900.97;5053306;28;70012;-33
2021/06/26 01:19:51;;;;;;;13.88;7.10;;;;;;;30.81;66.33;100935.84;5052761;28;66400;-34
2021/06/26 01:22:22;;;;;;;14.55;6.57;;;;;;;30.63;65.75;100902.19;5053354;28;69899;-33
2021/06/26 01:24:53;;;;;;;15.13;6.95;;;;;;;30.94;66.34;100955.53;5050636;28;66548;-34
2021/06/26 01:27:24;;;;;;;12.68;6.57;;;;;;;30.98;66.32;100963.22;5052290;28;69593;-34
2021/06/26 01:29:55;;;;;;;9.13;6.40;;;;;;;30.99;66.03;100954.91;5051554;28;65313;-34
2021/06/26 01:32:26;;;;;;;9.73;6.05;;;;;;;30.97;66.10;100962.41;5051923;28;69858;-35
2021/06/26 01:35:00;;;;;;;12.30;6.50;;;;;;;31.00;65.87;100953.84;5052725;28;65514;-35
2021/06/26 01:37:31;;;;;;;12.98;6.65;;;;;;;31.08;66.20;100969.00;5066381;28;69019;-35
2021/06/26 01:40:03;;;;;;;15.30;6.03;;;;;;;31.04;66.07;100956.94;5050330;28;66180;-35
2021/06/26 01:42:34;;;;;;;12.57;6.70;;;;;;;31.12;66.63;100973.78;5064960;28;69618;-34
2021/06/26 01:45:05;;;;;;;11.80;6.43;;;;;;;31.14;65.88;100974.34;5047688;28;65255;-35
2021/06/26 01:47:36;;;;;;;16.83;7.03;;;;;;;31.15;65.94;100970.63;5053523;28;69754;-34
2021/06/26 01:50:07;;;;;;;16.73;7.72;;;;;;;31.22;66.09;100975.16;5049464;28;65736;-34
2021/06/26 01:52:37;;;;;;;26.70;7.90;;;;;;;31.24;66.26;100994.75;5050655;28;69796;-36
2021/06/26 01:55:09;;;;;;;23.42;7.97;;;;;;;31.27;66.24;100988.88;5050702;28;65232;-34
2021/06/26 01:57:41;;;;;;;;;;;;;;;31.07;67.17;100987.13;5051877;28;70409;-36
2021/06/26 02:00:12;;;;;;;15.65;7.20;;;;;;;31.31;66.52;100984.66;5049464;28;67149;-35
2021/06/26 02:02:43;;;;;;;8.55;6.57;;;;;;;31.34;66.30;100974.22;5071817;27;69933;-40
2021/06/26 02:05:17;;;;;;;17.92;6.07;;;;;;;31.35;65.85;100980.47;5051371;28;67039;-34
2021/06/26 02:07:48;;;;;;;17.20;6.90;;;;;;;31.37;65.46;100968.38;5053810;28;70260;-34
2021/06/26 02:10:19;;;;;;;16.02;6.53;;;;;;;31.37;65.56;100972.94;5050463;28;65992;-34
2021/06/26 02:12:50;;;;;;;15.18;6.03;;;;;;;31.35;65.50;100969.63;5063780;27;69790;-34
2021/06/26 02:15:21;;;;;;;34.28;7.72;;;;;;;31.41;65.42;100974.19;5051281;28;65162;-34
2021/06/26 02:17:52;;;;;;;19.60;7.70;;;;;;;31.34;65.63;100959.81;5051866;28;69155;-34
2021/06/26 02:20:24;;;;;;;23.95;6.90;;;;;;;31.42;65.34;100970.41;5049477;28;66161;-35
2021/06/26 02:22:54;;;;;;;15.40;6.85;;;;;;;31.35;65.54;100958.78;5054981;28;69143;-36
2021/06/26 02:25:25;;;;;;;14.93;7.13;;;;;;;31.45;65.64;100969.16;5050757;28;65115;-35
2021/06/26 02:27:56;;;;;;;12.80;5.75;;;;;;;31.47;65.35;100970.59;5050253;28;69897;-36
2021/06/26 02:30:41;;;;;;;15.60;6.65;;;;;;;31.49;64.90;100976.63;5049551;28;65619;-35
2021/06/26 02:33:12;;;;;;;18.73;6.13;;;;;;;31.47;65.18;100970.59;5061072;27;69769;-35
2021/06/26 02:35:43;;;;;;;11.38;5.57;;;;;;;31.45;65.21;100969.97;5053703;28;66784;-34
2021/06/26 02:38:14;;;;;;;15.18;6.10;;;;;;;31.48;64.94;100969.56;5054397;28;70940;-35
2021/06/26 02:40:46;;;;;;;;;;;;;;;31.32;65.54;100964.66;5053299;28;66429;-35
2021/06/26 02:43:19;;;;;;;11.88;5.43;;;;;;;31.51;64.42;100963.69;5056773;28;69799;-36
2021/06/26 02:45:50;;;;;;;9.82;6.20;;;;;;;31.54;64.79;100957.81;5055799;28;65704;-35
2021/06/26 02:48:21;;;;;;;12.27;5.28;;;;;;;31.56;64.26;100966.53;5052585;28;69573;-36
2021/06/26 02:50:52;;;;;;;8.00;5.40;;;;;;;31.50;64.12;100950.34;5055126;28;65135;-35
2021/06/26 02:58:03;;;;;;;9.48;5.55;;;;;;;31.56;63.95;100938.59;5013978;28;66324;-35
2021/06/26 03:00:37;;;;;;;12.48;5.57;;;;;;;31.58;63.82;100950.88;5015739;28;69352;-35
2021/06/26 03:03:09;;;;;;;9.82;5.45;;;;;;;31.61;63.35;100952.31;5013429;28;65977;-35
2021/06/26 03:05:40;;;;;;;;;;;;;;;31.41;64.89;100949.78;5015057;28;68847;-39
2021/06/26 03:08:12;;;;;;;18.77;5.00;;;;;;;31.54;64.35;100952.38;5016309;28;66420;-33
2021/06/26 03:10:43;;;;;;;12.68;5.30;;;;;;;31.55;64.85;100943.19;5012269;28;69167;-33
2021/06/26 03:13:16;;;;;;;11.98;5.13;;;;;;;31.61;64.74;100947.72;5013859;28;65922;-34
2021/06/26 03:15:48;;;;;;;9.00;5.55;;;;;;;31.65;64.63;100936.41;5013017;28;69847;-34
2021/06/26 03:18:19;;;;;;;13.82;5.43;;;;;;;31.67;64.37;100929.72;5016239;28;66253;-33
2021/06/26 03:20:51;;;;;;;12.60;4.75;;;;;;;31.78;64.27;100933.56;5016499;28;70168;-33
2021/06/26 03:23:23;;;;;;;11.43;4.47;;;;;;;31.85;64.36;100931.63;5017713;28;66033;-34
2021/06/26 03:25:54;;;;;;;;;;;;;;;31.70;64.73;100933.84;5017370;28;70360;-33
2021/06/26 03:28:26;;;;;;;15.00;5.65;;;;;;;31.90;64.16;100922.78;5018868;28;66097;-33
2021/06/26 03:30:57;;;;;;;;;;;;;;;31.74;64.63;100918.81;5018259;28;69787;-32
2021/06/26 03:33:29;;;;;;;13.93;6.00;;;;;;;31.95;63.90;100918.38;5020281;28;65798;-34
2021/06/26 03:36:02;;;;;;;21.67;4.85;;;;;;;32.02;63.52;100916.41;5014791;28;70092;-34
2021/06/26 03:38:34;;;;;;;11.32;5.32;;;;;;;32.08;63.12;100913.84;5012729;28;65753;-33
2021/06/26 03:41:05;;;;;;;;;;;;;;;31.88;61.96;100906.75;5018828;28;70052;-34
2021/06/26 03:43:38;;;;;;;20.35;5.10;;;;;;;31.99;60.45;100906.03;5020435;28;66106;-34
2021/06/26 03:46:10;;;;;;;45.28;5.97;;;;;;;31.88;58.23;100904.03;5016557;28;70611;-34
2021/06/26 03:48:42;;;;;;;26.77;5.07;;;;;;;31.73;57.02;100901.72;5017644;28;66214;-35
2021/06/26 03:51:14;;;;;;;43.50;5.22;;;;;;;31.58;56.67;100903.94;5017142;28;70039;-34
2021/06/26 03:53:49;;;;;;;;;;;;;;;31.25;55.82;100905.06;5019522;28;66395;-32
2021/06/26 03:56:21;;;;;;;36.58;5.53;;;;;;;31.39;55.58;100911.22;5033685;28;69804;-32
2021/06/26 03:58:54;;;;;;;31.05;5.20;;;;;;;31.30;55.05;100896.28;5055914;28;65957;-32
2021/06/26 04:01:25;;;;;;;28.35;4.63;;;;;;;31.23;54.58;100900.91;5055994;28;69246;-32
2021/06/26 04:03:58;;;;;;;12.40;4.43;;;;;;;31.07;52.12;100884.19;5057178;28;67590;-32
2021/06/26 04:06:29;;;;;;;24.60;4.68;;;;;;;31.02;53.00;100900.28;5059080;28;69872;-32
2021/06/26 04:09:01;;;;;;;40.10;4.50;;;;;;;30.96;52.26;100884.91;5055867;28;65825;-31
2021/06/26 04:11:34;;;;;;;34.67;4.43;;;;;;;30.87;51.81;100891.63;5056705;28;69031;-32
2021/06/26 04:14:06;;;;;;;33.42;6.43;;;;;;;30.79;51.73;100878.34;5052285;28;66254;-32
2021/06/26 04:16:37;;;;;;;;;;;;;;;30.58;50.82;100891.19;5056328;28;70620;-32
2021/06/26 04:19:08;;;;;;;21.88;5.10;;;;;;;30.76;51.22;100889.59;5053736;28;65567;-33
2021/06/26 04:21:40;;;;;;;22.50;4.90;;;;;;;30.72;50.32;100894.63;5056513;28;69111;-32
2021/06/26 04:24:11;;;;;;;16.63;4.63;;;;;;;30.67;50.91;100892.59;5056227;28;65193;-33
2021/06/26 04:26:42;;;;;;;31.42;4.63;;;;;;;30.64;50.68;100898.41;5053157;28;69107;-33
2021/06/26 04:29:13;;;;;;;22.27;3.88;;;;;;;30.59;50.41;100890.16;5056840;28;66673;-33
2021/06/26 04:31:46;;;;;;;23.65;4.93;;;;;;;30.62;50.23;100884.28;5062216;28;69465;-34
2021/06/26 04:34:17;;;;;;;;;;;;;;;30.33;49.06;100887.59;5058751;28;65762;-32
2021/06/26 04:36:49;;;;;;;15.57;4.15;;;;;;;30.51;49.48;100882.28;5056452;28;70680;-33
2021/06/26 04:39:20;;;;;;;22.52;6.30;;;;;;;30.44;49.17;100876.06;5056101;28;66357;-33
2021/06/26 04:41:52;;;;;;;9.68;4.20;;;;;;;30.44;49.21;100881.47;5056628;28;70012;-32
2021/06/26 04:44:23;;;;;;;25.17;4.00;;;;;;;30.40;49.33;100875.69;5070304;28;64612;-32
2021/06/26 04:46:54;;;;;;;10.77;3.10;;;;;;;30.25;49.16;100851.59;5055874;28;69137;-31
2021/06/26 04:49:25;;;;;;;32.70;11.48;;;;;;;30.38;48.01;100876.94;5053031;28;66053;-32
2021/06/26 04:51:57;;;;;;;17.35;8.10;;;;;;;30.34;48.30;100873.84;5055842;28;70073;-32
2021/06/26 04:54:30;;;;;;;11.25;6.13;;;;;;;30.32;47.32;100872.41;5051812;28;66366;-32
2021/06/26 04:57:03;;;;;;;16.70;5.10;;;;;;;30.33;46.70;100861.34;5056867;28;70395;-33
2021/06/26 04:59:34;;;;;;;4.82;4.03;;;;;;;30.23;45.97;100852.88;5071075;28;65863;-34
2021/06/26 05:02:07;;;;;;;8.35;3.70;;;;;;;30.23;45.43;100856.41;5056696;28;69937;-32
2021/06/26 05:04:38;;;;;;;20.87;7.97;;;;;;;30.21;47.29;100863.88;5054482;28;65628;-32
2021/06/26 05:07:10;;;;;;;17.50;8.45;;;;;;;30.22;47.22;100854.75;5057168;28;70032;-31
2021/06/26 05:09:46;;;;;;;8.98;5.55;;;;;;;30.21;46.06;100844.94;5054950;28;66461;-32
2021/06/26 05:12:18;;;;;;;18.50;4.85;;;;;;;30.22;46.40;100845.81;5055704;28;68630;-33
2021/06/26 05:14:50;;;;;;;7.95;4.20;;;;;;;30.16;45.73;100828.53;5055552;28;66478;-32
2021/06/26 05:17:23;;;;;;;5.93;3.35;;;;;;;30.21;45.03;100838.72;5053149;28;69584;-34
2021/06/26 05:19:55;;;;;;;6.93;3.30;;;;;;;30.17;45.58;100845.59;5057125;28;65023;-31
2021/06/26 05:22:28;;;;;;;8.45;3.40;;;;;;;30.11;44.82;100827.50;5054426;28;69022;-33
2021/06/26 05:25:00;;;;;;;8.05;3.17;;;;;;;30.15;44.84;100829.59;5068592;27;65349;-32
2021/06/26 05:27:32;;;;;;;6.80;2.85;;;;;;;30.15;44.64;100828.75;5050145;28;69713;-32
2021/06/26 05:30:05;;;;;;;4.65;3.35;;;;;;;30.23;43.95;100842.91;5070376;27;65899;-33
2021/06/26 05:32:41;;;;;;;6.18;2.90;;;;;;;30.22;44.10;100824.97;5055075;28;69445;-32
2021/06/26 05:35:12;;;;;;;;;;;;;;;30.03;41.93;100823.19;5054520;28;66198;-33
2021/06/26 05:37:46;;;;;;;5.93;2.87;;;;;;;30.26;43.87;100820.00;5052399;28;70001;-32
2021/06/26 05:40:18;;;;;;;5.00;2.70;;;;;;;30.25;43.50;100816.44;5057045;27;66264;-32
2021/06/26 05:42:51;;;;;;;6.47;3.13;;;;;;;30.33;42.54;100817.22;5056757;28;70596;-32
2021/06/26 05:45:25;;;;;;;6.88;3.08;;;;;;;30.32;42.95;100818.28;5045152;28;65951;-33
2021/06/26 05:48:00;;;;;;;9.30;2.50;;;;;;;30.28;43.15;100807.03;5048996;28;70093;-33
2021/06/26 05:50:33;;;;;;;7.63;3.08;;;;;;;30.32;43.28;100815.56;5054193;28;65569;-32
2021/06/26 05:53:05;;;;;;;12.52;2.90;;;;;;;30.34;42.94;100816.16;5056365;28;70027;-32
2021/06/26 05:55:38;;;;;;;18.40;3.13;;;;;;;30.34;42.59;100806.19;5052691;28;65089;-32
2021/06/26 05:58:11;;;;;;;18.38;3.00;;;;;;;30.39;42.17;100813.63;5069614;27;69123;-32
2021/06/26 06:00:47;;;;;;;14.63;3.00;;;;;;;30.36;42.41;100804.06;5049801;28;66105;-33
2021/06/26 06:03:19;;;;;;;8.82;2.97;;;;;;;30.37;42.46;100805.75;5053203;28;70600;-32
2021/06/26 06:05:52;;;;;;;11.38;3.00;;;;;;;30.40;41.96;100804.50;5048530;28;65840;-32
2021/06/26 06:08:25;;;;;;;11.50;2.97;;;;;;;30.38;42.85;100784.94;5054776;28;69306;-33
2021/06/26 06:10:59;;;;;;;4.97;2.97;;;;;;;30.48;43.28;100796.09;5053328;28;66124;-31
2021/06/26 06:13:32;;;;;;;10.57;2.83;;;;;;;30.49;42.62;100793.16;5053447;28;69331;-33
2021/06/26 06:16:05;;;;;;;5.20;2.42;;;;;;;30.49;42.74;100781.50;5053108;28;66228;-31
2021/06/26 06:18:37;;;;;;;16.23;2.75;;;;;;;30.50;42.53;100794.00;5056583;28;69085;-32
2021/06/26 06:21:09;;;;;;;5.22;2.65;;;;;;;30.43;41.87;100780.50;5051810;28;65849;-33
2021/06/26 06:23:41;;;;;;;9.30;3.08;;;;;;;30.49;42.24;100786.94;5052592;28;70036;-33
2021/06/26 06:26:16;;;;;;;5.90;2.47;;;;;;;30.47;42.13;100784.44;5053104;28;65308;-33
2021/06/26 06:28:47;;;;;;;11.05;2.58;;;;;;;30.48;41.79;100788.00;5050313;28;69025;-32
2021/06/26 06:31:20;;;;;;;5.50;2.92;;;;;;;30.52;41.91;100780.25;5054833;28;65985;-32
2021/06/26 06:33:52;;;;;;;6.78;2.90;;;;;;;30.50;41.83;100780.44;5053016;28;69858;-33
2021/06/26 06:36:23;;;;;;;3.88;2.95;;;;;;;30.50;41.29;100766.91;5055545;28;65898;-32
2021/06/26 06:38:56;;;;;;;4.65;2.38;;;;;;;30.53;41.05;100774.59;5055160;28;70020;-33
2021/06/26 06:41:27;;;;;;;5.03;2.10;;;;;;;30.49;40.23;100770.69;5048848;28;65390;-34
2021/06/26 06:43:59;;;;;;;12.57;2.80;;;;;;;30.46;40.47;100761.13;5053854;28;70199;-33
2021/06/26 06:46:30;;;;;;;;;;;;;;;30.25;39.96;100759.59;5056889;28;65503;-32
2021/06/26 06:49:04;;;;;;;6.25;2.33;;;;;;;30.48;40.10;100764.44;5053164;28;69305;-33
2021/06/26 06:51:36;;;;;;;11.47;2.87;;;;;;;30.42;40.51;100761.78;5051029;28;66228;-33
2021/06/26 06:54:08;;;;;;;12.38;2.80;;;;;;;30.39;40.52;100759.50;5054781;28;69830;-32
2021/06/26 06:56:40;;;;;;;2.65;2.35;;;;;;;30.37;40.43;100745.38;5053946;28;64993;-33
2021/06/26 06:59:12;;;;;;;18.63;3.13;;;;;;;30.36;40.05;100749.13;5054285;28;70112;-32
2021/06/26 07:01:43;;;;;;;7.68;3.22;;;;;;;30.34;40.35;100746.66;5053428;28;66052;-32
2021/06/26 07:04:15;;;;;;;6.15;3.10;;;;;;;30.32;40.35;100745.22;5054341;28;70391;-31
2021/06/26 07:06:49;;;;;;;5.47;2.50;;;;;;;30.27;39.71;100746.69;5055043;28;66178;-32
2021/06/26 07:09:21;;;;;;;4.97;2.80;;;;;;;30.30;40.36;100750.84;5052678;28;69883;-32
2021/06/26 07:11:53;;;;;;;10.18;3.13;;;;;;;30.30;39.98;100753.53;5054274;28;66688;-31
2021/06/26 07:14:25;;;;;;;5.15;2.97;;;;;;;30.28;39.86;100740.25;5054988;28;70413;-31
2021/06/26 07:16:58;;;;;;;4.32;2.45;;;;;;;30.28;39.72;100740.25;5050013;28;67385;-35
2021/06/26 07:19:30;;;;;;;3.42;2.85;;;;;;;30.26;39.58;100734.22;5042512;28;70108;-31
2021/06/26 07:22:02;;;;;;;3.00;2.55;;;;;;;30.26;39.69;100736.94;5053906;28;65855;-31
2021/06/26 07:24:33;;;;;;;;;;;;;;;30.03;38.83;100728.50;5056128;28;70275;-31
2021/06/26 07:27:05;;;;;;;3.50;2.53;;;;;;;30.25;39.35;100721.72;5057331;28;65579;-32
2021/06/26 07:29:37;;;;;;;2.50;2.30;;;;;;;30.25;38.97;100716.31;5056189;28;69893;-30
2021/06/26 07:32:08;;;;;;;3.00;2.20;;;;;;;30.22;39.59;100722.16;5056715;28;65686;-32
2021/06/26 07:34:42;;;;;;;5.07;2.55;;;;;;;30.25;38.91;100723.59;5058042;28;69066;-34
2021/06/26 07:37:15;;;;;;;6.37;2.73;;;;;;;30.24;39.05;100720.06;5070028;28;66510;-32
2021/06/26 07:39:46;;;;;;;4.38;3.00;;;;;;;30.21;38.92;100715.06;5058143;28;70051;-33
2021/06/26 07:42:19;;;;;;;8.80;2.50;;;;;;;30.22;39.04;100716.75;5056454;28;66490;-31
2021/06/26 07:44:53;;;;;;;5.32;2.65;;;;;;;30.23;39.06;100704.06;5055746;28;70063;-32
2021/06/26 07:47:25;;;;;;;5.05;2.35;;;;;;;30.10;38.44;100680.63;5056357;28;65611;-31
2021/06/26 07:49:56;;;;;;;4.80;2.70;;;;;;;30.19;38.16;100692.81;5055047;28;70146;-32
2021/06/26 07:52:28;;;;;;;3.27;2.70;;;;;;;30.21;38.89;100688.03;5057311;28;66309;-31
2021/06/26 07:55:00;;;;;;;3.67;2.42;;;;;;;30.20;39.03;100689.09;5055500;28;69761;-31
2021/06/26 07:57:32;;;;;;;4.82;2.55;;;;;;;30.12;38.65;100673.13;5055154;28;66432;-32
2021/06/26 08:00:04;;;;;;;;;;;;;;;29.98;38.11;100694.03;5055526;28;69976;-32
2021/06/26 08:02:36;;;;;;;2.47;2.28;;;;;;;30.24;38.73;100698.44;5054398;28;66121;-31
2021/06/26 08:05:08;;;;;;;;;;;;;;;30.01;38.44;100696.28;5054225;28;69385;-31
2021/06/26 08:07:54;;;;;;;8.35;2.33;;;;;;;30.27;38.36;100698.00;5054802;28;66317;-32
2021/06/26 08:10:25;;;;;;;;;;;;;;;30.03;37.57;100685.25;5052665;28;70101;-32
2021/06/26 08:12:58;;;;;;;5.93;2.57;;;;;;;30.23;38.46;100685.97;5053846;28;66272;-31
2021/06/26 08:15:30;;;;;;;9.65;2.78;;;;;;;30.24;37.97;100684.06;5055919;28;70130;-32
2021/06/26 08:18:03;;;;;;;5.32;2.53;;;;;;;30.23;38.63;100668.91;5053974;28;65138;-32
2021/06/26 08:20:35;;;;;;;9.30;2.78;;;;;;;30.27;38.55;100686.34;5056004;28;69601;-32
2021/06/26 08:23:07;;;;;;;6.43;2.60;;;;;;;30.23;38.31;100668.91;5056406;28;65528;-33
2021/06/26 08:25:38;;;;;;;;;;;;;;;30.07;38.56;100675.66;5057325;28;70665;-32
2021/06/26 08:28:10;;;;;;;9.57;2.50;;;;;;;30.25;39.01;100675.72;5057249;28;66682;-33
2021/06/26 08:30:41;;;;;;;22.92;2.58;;;;;;;30.25;39.98;100683.84;5053135;28;69641;-32
2021/06/26 08:33:13;;;;;;;17.55;3.00;;;;;;;30.23;40.03;100663.50;5054334;28;66729;-33
2021/06/26 08:35:44;;;;;;;18.77;3.13;;;;;;;30.34;40.44;100681.72;5043726;28;70007;-33
2021/06/26 08:38:14;;;;;;;9.13;3.53;;;;;;;30.39;42.31;100667.50;5053516;28;65725;-33
2021/06/26 08:40:47;;;;;;;14.32;3.47;;;;;;;30.57;46.83;100675.66;5052351;28;69893;-33
2021/06/26 08:43:19;;;;;;;6.65;3.53;;;;;;;30.75;47.58;100679.44;5066428;27;66482;-32
2021/06/26 08:45:51;;;;;;;6.95;3.88;;;;;;;30.95;49.21;100682.78;5052054;28;69300;-32
2021/06/26 08:48:23;;;;;;;26.15;4.00;;;;;;;31.11;49.63;100674.06;5055909;28;65847;-32
2021/06/26 08:50:55;;;;;;;16.33;4.20;;;;;;;31.29;50.09;100684.06;5052873;28;69802;-32
2021/06/26 08:53:27;;;;;;;22.17;4.47;;;;;;;31.48;51.05;100687.59;5057012;28;66001;-33
2021/06/26 08:55:59;;;;;;;17.60;4.50;;;;;;;31.52;50.64;100677.94;5054490;28;70599;-32
2021/06/26 08:58:30;;;;;;;;;;;;;;;31.54;53.45;100686.69;5051310;28;66049;-32
2021/06/26 09:01:04;;;;;;;23.45;4.32;;;;;;;31.82;51.13;100696.09;5052148;28;70793;-34
2021/06/26 09:03:35;;;;;;;16.37;4.33;;;;;;;31.91;51.71;100697.44;5049671;28;63532;-31
2021/06/26 09:06:07;;;;;;;21.40;4.32;;;;;;;32.01;51.63;100686.88;5032852;28;70001;-33
2021/06/26 09:08:49;;;;;;;10.57;4.07;;;;;;;32.09;53.40;100682.16;5054901;28;66235;-32
2021/06/26 09:11:21;;;;;;;20.63;4.05;;;;;;;32.19;52.92;100685.13;5052756;28;69375;-31
2021/06/26 09:13:51;;;;;;;8.02;3.85;;;;;;;32.28;53.40;100681.00;5055249;28;66962;-33
2021/06/26 09:16:23;;;;;;;14.13;4.38;;;;;;;32.44;53.67;100690.34;5054730;28;70868;-33
2021/06/26 09:18:56;;;;;;;12.48;3.63;;;;;;;32.51;53.69;100690.22;5055664;28;65848;-34
2021/06/26 09:21:31;;;;;;;15.23;3.70;;;;;;;32.57;53.88;100694.72;5053154;28;70121;-32
2021/06/26 09:24:09;;;;;;;12.25;4.00;;;;;;;32.55;54.67;100680.56;5057214;28;65060;-33
2021/06/26 09:26:58;;;;;;;16.00;5.15;;;;;;;32.32;55.80;100632.47;5054295;28;69827;-31
2021/06/26 09:29:30;;;;;;;25.73;4.63;;;;;;;32.69;54.82;100677.38;5048530;28;66031;-31
2021/06/26 09:32:04;;;;;;;17.65;4.18;;;;;;;32.44;54.77;100631.44;5050824;28;69786;-32
2021/06/26 09:34:43;;;;;;;34.78;6.88;;;;;;;32.69;55.66;100660.25;5047366;28;65346;-33
2021/06/26 09:37:20;;;;;;;22.88;7.47;;;;;;;32.86;55.62;100666.59;5050415;28;68790;-31
2021/06/26 09:39:55;;;;;;;25.70;7.03;;;;;;;32.91;55.92;100680.28;5046497;28;65535;-34
2021/06/26 09:42:30;;;;;;;41.45;5.35;;;;;;;32.73;56.42;100628.81;5047794;28;69098;-30
2021/06/26 09:45:07;;;;;;;39.53;5.63;;;;;;;33.00;57.70;100667.19;5033792;28;64398;-30
2021/06/26 09:47:43;;;;;;;28.48;5.43;;;;;;;32.94;57.88;100647.22;5049674;28;70261;-30
2021/06/26 09:50:25;;;;;;;24.63;4.68;;;;;;;32.83;58.58;100637.19;5051119;28;66215;-29
2021/06/26 09:53:04;;;;;;;24.15;5.18;;;;;;;32.87;58.43;100635.63;5048070;28;70155;-30
2021/06/26 09:55:43;;;;;;;35.00;5.35;;;;;;;32.82;58.14;100635.56;5048656;28;65252;-30
2021/06/26 09:58:17;;;;;;;24.63;4.47;;;;;;;33.00;57.65;100655.50;5049231;28;70433;-29
2021/06/26 10:00:48;;;;;;;30.08;5.38;;;;;;;33.03;57.45;100665.88;5049574;28;66301;-30
2021/06/26 10:03:23;;;;;;;31.77;6.05;;;;;;;33.02;57.18;100656.09;5048387;28;70142;-29
2021/06/26 10:05:56;;;;;;;31.30;5.10;;;;;;;33.00;57.83;100658.22;5047060;28;65858;-30
2021/06/26 10:08:29;;;;;;;22.83;4.22;;;;;;;33.00;57.52;100660.94;5045710;28;69121;-31
2021/06/26 10:11:00;;;;;;;28.73;5.15;;;;;;;33.01;56.90;100668.81;5048120;28;65551;-31
2021/06/26 10:13:34;;;;;;;;;;;;;;;32.83;58.55;100677.94;5052308;28;69420;-30
2021/06/26 10:16:05;;;;;;;23.95;5.88;;;;;;;33.03;57.41;100684.91;5053726;28;66340;-31
2021/06/26 10:18:40;;;;;;;27.17;5.05;;;;;;;33.04;57.88;100684.69;5044214;28;69986;-31
2021/06/26 10:21:12;;;;;;;20.23;5.13;;;;;;;33.06;57.97;100692.56;5054472;27;66409;-30
2021/06/26 10:23:43;;;;;;;;;;;;;;;32.83;59.41;100691.53;5050732;28;70408;-32
2021/06/26 10:26:16;;;;;;;15.82;3.90;;;;;;;32.97;58.67;100694.00;5052664;28;65436;-31
2021/06/26 10:28:59;;;;;;;27.25;5.65;;;;;;;32.92;58.64;100676.50;5053825;28;70424;-30
2021/06/26 10:31:42;;;;;;;11.85;4.32;;;;;;;32.82;58.80;100665.44;5052084;28;66140;-30
2021/06/26 10:34:25;;;;;;;35.13;5.15;;;;;;;32.92;58.43;100672.97;5054401;28;70042;-30
2021/06/26 10:36:56;;;;;;;18.70;3.78;;;;;;;33.04;58.56;100694.69;5050487;28;66128;-31
2021/06/26 10:39:30;;;;;;;13.63;4.18;;;;;;;33.05;58.02;100693.66;5054980;28;69846;-29
2021/06/26 10:42:07;;;;;;;18.35;4.05;;;;;;;32.84;58.81;100663.28;5030350;28;64737;-30
2021/06/26 10:44:47;;;;;;;22.48;3.92;;;;;;;33.03;58.54;100693.06;5056266;28;70492;-30
2021/06/26 10:47:34;;;;;;;15.45;4.07;;;;;;;33.01;58.47;100701.44;5055237;28;66134;-31
2021/06/26 10:50:24;;;;;;;16.25;4.43;;;;;;;32.93;59.44;100705.34;5042691;28;70061;-30
2021/06/26 10:52:58;;;;;;;17.77;4.60;;;;;;;32.85;58.69;100675.00;5052754;28;64885;-30
2021/06/26 10:55:37;;;;;;;26.88;4.18;;;;;;;32.94;59.07;100687.97;5053467;28;69131;-33
2021/06/26 10:58:09;;;;;;;20.23;4.07;;;;;;;32.89;59.40;100692.47;5053440;28;66318;-30
2021/06/26 11:00:41;;;;;;;12.70;3.08;;;;;;;32.92;59.18;100698.22;5055676;28;69313;-31
2021/06/26 11:03:21;;;;;;;26.73;4.72;;;;;;;32.87;59.96;100695.41;5056837;28;65883;-30
2021/06/26 11:05:52;;;;;;;12.93;4.30;;;;;;;32.88;59.15;100705.22;5053827;28;70700;-29
2021/06/26 11:08:24;;;;;;;10.02;4.53;;;;;;;32.86;59.37;100704.63;5059304;28;65945;-30
2021/06/26 11:10:59;;;;;;;12.63;4.20;;;;;;;32.68;60.23;100683.03;5054956;28;69762;-30
2021/06/26 11:13:31;;;;;;;8.32;4.07;;;;;;;32.86;59.79;100715.50;5054316;28;66062;-31
2021/06/26 11:16:10;;;;;;;6.03;4.00;;;;;;;32.26;57.53;100647.81;5054869;28;69545;-31
2021/06/26 11:18:40;;;;;;;5.30;3.17;;;;;;;32.62;55.98;100714.66;5053624;28;66037;-33
2021/06/26 11:21:11;;;;;;;8.98;3.40;;;;;;;32.47;54.73;100722.47;5054612;28;70067;-31
2021/06/26 11:23:50;;;;;;;10.60;3.40;;;;;;;32.37;52.11;100733.88;5055797;28;65973;-32
2021/06/26 11:26:21;;;;;;;7.85;3.13;;;;;;;32.26;53.40;100732.81;5054442;28;69801;-33
2021/06/26 11:28:52;;;;;;;9.50;2.67;;;;;;;32.05;52.92;100731.44;5053441;28;65945;-31
2021/06/26 11:31:23;;;;;;;5.28;2.95;;;;;;;31.93;52.02;100718.91;5051308;28;69283;-31
2021/06/26 11:33:54;;;;;;;7.10;3.25;;;;;;;31.92;51.43;100742.50;5055574;28;64553;-31
2021/06/26 11:36:26;;;;;;;9.77;3.03;;;;;;;31.76;51.15;100732.25;5054629;28;69137;-32
2021/06/26 11:38:57;;;;;;;10.40;3.40;;;;;;;31.74;50.18;100746.06;5053360;28;65214;-31
2021/06/26 11:41:29;;;;;;;5.67;3.33;;;;;;;31.29;50.02;100677.81;5054357;28;70172;-32
2021/06/26 11:44:01;;;;;;;5.72;3.03;;;;;;;31.56;50.12;100749.63;5053720;28;65161;-33
2021/06/26 11:46:31;;;;;;;7.43;2.85;;;;;;;31.45;49.30;100744.97;5049361;28;70041;-32
2021/06/26 11:49:02;;;;;;;7.75;3.15;;;;;;;31.42;48.79;100748.13;5053816;28;66233;-31
2021/06/26 11:51:34;;;;;;;4.10;2.93;;;;;;;31.34;48.44;100751.13;5055921;28;70113;-32
2021/06/26 11:54:04;;;;;;;12.48;3.13;;;;;;;31.31;47.30;100759.69;5053626;28;65914;-30